sensor_id;sensor_type;location;lat;lon;timestamp;pressure;altitude;pressure_sealevel;temperature;humidity
64889;BME280;51386;53.082;8.816;2023-03-13T00:01:13;100178.53;;;13.18;60.14
64889;BME280;51386;53.082;8.816;2023-03-13T00:03:41;100171.44;;;13.18;60.38
64889;BME280;51386;53.082;8.816;2023-03-13T00:06:09;100164.53;;;13.11;60.56
64889;BME280;51386;53.082;8.816;2023-03-13T00:08:36;100158.84;;;13.14;60.41
64889;BME280;51386;53.082;8.816;2023-03-13T00:11:05;100151.09;;;13.19;60.43
64889;BME280;51386;53.082;8.816;2023-03-13T00:13:34;100148.84;;;13.22;60.37
64889;BME280;51386;53.082;8.816;2023-03-13T00:16:02;100148.84;;;13.22;60.32
64889;BME280;51386;53.082;8.816;2023-03-13T00:18:30;100148.22;;;13.27;60.19
64889;BME280;51386;53.082;8.816;2023-03-13T00:20:58;100146.41;;;13.27;60.23
64889;BME280;51386;53.082;8.816;2023-03-13T00:23:28;100141.72;;;13.29;59.98
64889;BME280;51386;53.082;8.816;2023-03-13T00:25:56;100134.22;;;13.26;60.29
64889;BME280;51386;53.082;8.816;2023-03-13T00:28:24;100127.31;;;13.25;60.39
64889;BME280;51386;53.082;8.816;2023-03-13T00:30:59;100128.75;;;13.21;60.33
64889;BME280;51386;53.082;8.816;2023-03-13T00:33:26;100115.31;;;13.23;60.41
64889;BME280;51386;53.082;8.816;2023-03-13T00:35:57;100116.72;;;13.25;60.31
64889;BME280;51386;53.082;8.816;2023-03-13T00:38:24;100112.88;;;13.21;60.34
64889;BME280;51386;53.082;8.816;2023-03-13T00:41:00;100115.31;;;13.23;60.37
64889;BME280;51386;53.082;8.816;2023-03-13T00:43:28;100107.59;;;13.21;60.42
64889;BME280;51386;53.082;8.816;2023-03-13T00:45:55;100112.88;;;13.21;60.44
64889;BME280;51386;53.082;8.816;2023-03-13T00:48:23;100106.56;;;13.22;60.40
64889;BME280;51386;53.082;8.816;2023-03-13T00:50:50;100102.72;;;13.18;60.36
64889;BME280;51386;53.082;8.816;2023-03-13T00:53:17;100096.63;;;13.18;60.53
64889;BME280;51386;53.082;8.816;2023-03-13T00:55:52;100092.38;;;13.17;60.73
64889;BME280;51386;53.082;8.816;2023-03-13T00:58:21;100087.28;;;13.15;60.31
64889;BME280;51386;53.082;8.816;2023-03-13T01:00:50;100091.75;;;13.15;60.55
64889;BME280;51386;53.082;8.816;2023-03-13T01:03:18;100084.44;;;13.10;60.71
64889;BME280;51386;53.082;8.816;2023-03-13T01:05:55;100075.50;;;13.11;60.79
64889;BME280;51386;53.082;8.816;2023-03-13T01:08:23;100076.50;;;13.10;60.91
64889;BME280;51386;53.082;8.816;2023-03-13T01:10:50;100067.97;;;13.02;61.25
64889;BME280;51386;53.082;8.816;2023-03-13T01:13:17;100068.56;;;13.04;61.40
64889;BME280;51386;53.082;8.816;2023-03-13T01:15:45;100060.47;;;13.12;61.15
64889;BME280;51386;53.082;8.816;2023-03-13T01:18:12;100042.16;;;13.17;60.84
64889;BME280;51386;53.082;8.816;2023-03-13T01:20:41;100053.13;;;13.20;60.87
64889;BME280;51386;53.082;8.816;2023-03-13T01:23:08;100044.59;;;13.18;60.83
64889;BME280;51386;53.082;8.816;2023-03-13T01:25:35;100023.44;;;13.18;61.02
64889;BME280;51386;53.082;8.816;2023-03-13T01:28:03;100020.22;;;13.16;61.00
64889;BME280;51386;53.082;8.816;2023-03-13T01:30:30;100014.88;;;13.23;60.97
64889;BME280;51386;53.082;8.816;2023-03-13T01:32:59;100006.75;;;13.24;61.08
64889;BME280;51386;53.082;8.816;2023-03-13T01:35:26;99999.44;;;13.26;61.13
64889;BME280;51386;53.082;8.816;2023-03-13T01:37:52;99999.84;;;13.23;61.07
64889;BME280;51386;53.082;8.816;2023-03-13T01:40:19;99987.22;;;13.25;61.34
64889;BME280;51386;53.082;8.816;2023-03-13T01:42:52;99981.94;;;13.25;61.08
64889;BME280;51386;53.082;8.816;2023-03-13T01:46:12;99974.69;;;13.08;61.78
64889;BME280;51386;53.082;8.816;2023-03-13T01:48:48;99963.72;;;13.11;61.95
64889;BME280;51386;53.082;8.816;2023-03-13T01:51:21;99955.41;;;13.07;62.22
64889;BME280;51386;53.082;8.816;2023-03-13T01:53:56;99945.22;;;13.11;62.01
64889;BME280;51386;53.082;8.816;2023-03-13T01:56:33;99937.69;;;13.14;61.79
64889;BME280;51386;53.082;8.816;2023-03-13T01:59:05;99929.16;;;13.12;62.10
64889;BME280;51386;53.082;8.816;2023-03-13T02:01:34;99923.88;;;13.12;62.04
64889;BME280;51386;53.082;8.816;2023-03-13T02:04:04;99920.44;;;13.12;62.19
64889;BME280;51386;53.082;8.816;2023-03-13T02:06:37;99910.06;;;13.10;62.06
64889;BME280;51386;53.082;8.816;2023-03-13T02:09:11;99901.91;;;13.05;62.37
64889;BME280;51386;53.082;8.816;2023-03-13T02:11:47;99899.94;;;13.07;62.29
64889;BME280;51386;53.082;8.816;2023-03-13T02:14:19;99896.25;;;13.08;62.37
64889;BME280;51386;53.082;8.816;2023-03-13T02:16:48;99895.03;;;13.11;62.43
64889;BME280;51386;53.082;8.816;2023-03-13T02:19:29;99886.88;;;13.12;62.23
64889;BME280;51386;53.082;8.816;2023-03-13T02:22:08;99875.88;;;13.15;62.14
64889;BME280;51386;53.082;8.816;2023-03-13T02:24:45;99866.19;;;13.09;62.40
64889;BME280;51386;53.082;8.816;2023-03-13T02:27:18;99866.38;;;13.08;62.50
64889;BME280;51386;53.082;8.816;2023-03-13T02:29:45;99861.09;;;13.08;62.95
64889;BME280;51386;53.082;8.816;2023-03-13T02:32:13;99845.25;;;13.01;62.96
64889;BME280;51386;53.082;8.816;2023-03-13T02:34:43;99842.81;;;13.06;62.84
64889;BME280;51386;53.082;8.816;2023-03-13T02:37:13;99829.38;;;13.08;62.72
64889;BME280;51386;53.082;8.816;2023-03-13T02:39:44;99825.16;;;13.07;62.95
64889;BME280;51386;53.082;8.816;2023-03-13T02:42:13;99809.66;;;13.10;62.74
64889;BME280;51386;53.082;8.816;2023-03-13T02:44:46;99810.91;;;13.08;62.89
64889;BME280;51386;53.082;8.816;2023-03-13T02:47:18;99804.41;;;13.04;62.97
64889;BME280;51386;53.082;8.816;2023-03-13T02:49:45;99795.88;;;13.08;63.13
64889;BME280;51386;53.082;8.816;2023-03-13T02:52:18;99797.91;;;13.06;63.31
64889;BME280;51386;53.082;8.816;2023-03-13T02:54:51;99784.91;;;13.05;63.21
64889;BME280;51386;53.082;8.816;2023-03-13T02:57:19;99782.09;;;13.00;63.58
64889;BME280;51386;53.082;8.816;2023-03-13T02:59:47;99773.56;;;12.98;63.81
64889;BME280;51386;53.082;8.816;2023-03-13T03:02:14;99779.03;;;12.96;64.02
64889;BME280;51386;53.082;8.816;2023-03-13T03:04:41;99766.00;;;13.01;63.74
64889;BME280;51386;53.082;8.816;2023-03-13T03:07:07;99759.75;;;12.96;64.24
64889;BME280;51386;53.082;8.816;2023-03-13T03:09:34;99750.88;;;12.90;64.48
64889;BME280;51386;53.082;8.816;2023-03-13T03:12:01;99755.50;;;12.95;64.48
64889;BME280;51386;53.082;8.816;2023-03-13T03:14:28;99747.34;;;12.96;64.35
64889;BME280;51386;53.082;8.816;2023-03-13T03:16:57;99734.97;;;12.97;64.33
64889;BME280;51386;53.082;8.816;2023-03-13T03:19:23;99737.81;;;12.95;64.50
64889;BME280;51386;53.082;8.816;2023-03-13T03:21:50;99726.50;;;12.88;64.89
64889;BME280;51386;53.082;8.816;2023-03-13T03:24:17;99716.94;;;12.87;64.93
64889;BME280;51386;53.082;8.816;2023-03-13T03:26:44;99715.50;;;12.91;64.91
64889;BME280;51386;53.082;8.816;2023-03-13T03:29:11;99709.41;;;12.90;65.11
64889;BME280;51386;53.082;8.816;2023-03-13T03:31:38;99713.06;;;12.89;65.10
64889;BME280;51386;53.082;8.816;2023-03-13T03:34:07;99700.25;;;12.93;65.10
64889;BME280;51386;53.082;8.816;2023-03-13T03:36:34;99698.78;;;12.97;65.32
64889;BME280;51386;53.082;8.816;2023-03-13T03:39:01;99688.06;;;12.92;65.30
64889;BME280;51386;53.082;8.816;2023-03-13T03:41:28;99675.72;;;12.86;65.60
64889;BME280;51386;53.082;8.816;2023-03-13T03:43:55;99675.34;;;12.82;65.95
64889;BME280;51386;53.082;8.816;2023-03-13T03:46:22;99666.44;;;12.77;66.59
64889;BME280;51386;53.082;8.816;2023-03-13T03:48:50;99663.63;;;12.72;66.84
64889;BME280;51386;53.082;8.816;2023-03-13T03:51:18;99647.66;;;12.67;66.98
64889;BME280;51386;53.082;8.816;2023-03-13T03:53:45;99643.81;;;12.63;67.59
64889;BME280;51386;53.082;8.816;2023-03-13T03:56:12;99632.06;;;12.59;67.64
64889;BME280;51386;53.082;8.816;2023-03-13T03:58:39;99628.84;;;12.57;68.19
64889;BME280;51386;53.082;8.816;2023-03-13T04:01:06;99615.06;;;12.55;68.27
64889;BME280;51386;53.082;8.816;2023-03-13T04:03:33;99621.50;;;12.59;68.05
64889;BME280;51386;53.082;8.816;2023-03-13T04:06:00;99604.53;;;12.48;68.69
64889;BME280;51386;53.082;8.816;2023-03-13T04:08:29;99605.34;;;12.49;68.79
64889;BME280;51386;53.082;8.816;2023-03-13T04:10:56;99611.59;;;12.54;68.90
64889;BME280;51386;53.082;8.816;2023-03-13T04:13:22;99607.78;;;12.50;69.29
64889;BME280;51386;53.082;8.816;2023-03-13T04:15:49;99593.94;;;12.55;68.82
64889;BME280;51386;53.082;8.816;2023-03-13T04:18:16;99584.97;;;12.56;68.82
64889;BME280;51386;53.082;8.816;2023-03-13T04:20:44;99582.16;;;12.57;68.91
64889;BME280;51386;53.082;8.816;2023-03-13T04:23:11;99570.78;;;12.57;68.67
64889;BME280;51386;53.082;8.816;2023-03-13T04:25:39;99569.97;;;12.56;69.01
64889;BME280;51386;53.082;8.816;2023-03-13T04:28:06;99569.16;;;12.56;69.30
64889;BME280;51386;53.082;8.816;2023-03-13T04:30:33;99552.72;;;12.54;69.37
64889;BME280;51386;53.082;8.816;2023-03-13T04:33:00;99545.69;;;12.48;69.54
64889;BME280;51386;53.082;8.816;2023-03-13T04:35:27;99526.97;;;12.49;69.62
64889;BME280;51386;53.082;8.816;2023-03-13T04:37:54;99526.66;;;12.39;70.22
64889;BME280;51386;53.082;8.816;2023-03-13T04:40:20;99516.91;;;12.40;70.42
64889;BME280;51386;53.082;8.816;2023-03-13T04:42:49;99514.75;;;12.55;69.77
64889;BME280;51386;53.082;8.816;2023-03-13T04:45:16;99509.03;;;12.58;69.81
64889;BME280;51386;53.082;8.816;2023-03-13T04:47:44;99503.69;;;12.64;70.00
64889;BME280;51386;53.082;8.816;2023-03-13T04:50:12;99509.66;;;12.78;69.28
64889;BME280;51386;53.082;8.816;2023-03-13T04:52:39;99508.03;;;12.77;69.63
64889;BME280;51386;53.082;8.816;2023-03-13T04:55:06;99506.03;;;12.72;69.81
64889;BME280;51386;53.082;8.816;2023-03-13T04:57:33;99504.94;;;12.80;69.86
64889;BME280;51386;53.082;8.816;2023-03-13T05:00:02;99497.03;;;12.80;69.93
64889;BME280;51386;53.082;8.816;2023-03-13T05:02:32;99490.28;;;12.84;69.60
64889;BME280;51386;53.082;8.816;2023-03-13T05:04:59;99484.31;;;12.88;69.48
64889;BME280;51386;53.082;8.816;2023-03-13T05:07:26;99487.13;;;12.93;69.60
64889;BME280;51386;53.082;8.816;2023-03-13T05:09:52;99477.66;;;12.86;70.19
64889;BME280;51386;53.082;8.816;2023-03-13T05:12:19;99474.50;;;12.96;69.83
64889;BME280;51386;53.082;8.816;2023-03-13T05:14:46;99472.38;;;12.86;70.41
64889;BME280;51386;53.082;8.816;2023-03-13T05:17:15;99465.56;;;12.97;69.98
64889;BME280;51386;53.082;8.816;2023-03-13T05:19:43;99462.69;;;12.98;70.30
64889;BME280;51386;53.082;8.816;2023-03-13T05:22:10;99459.03;;;12.99;70.45
64889;BME280;51386;53.082;8.816;2023-03-13T05:24:37;99448.03;;;13.02;70.35
64889;BME280;51386;53.082;8.816;2023-03-13T05:27:07;99451.69;;;13.01;70.70
64889;BME280;51386;53.082;8.816;2023-03-13T05:29:34;99445.69;;;12.94;70.95
64889;BME280;51386;53.082;8.816;2023-03-13T05:32:01;99438.47;;;13.01;71.19
64889;BME280;51386;53.082;8.816;2023-03-13T05:34:29;99431.31;;;13.08;70.85
64889;BME280;51386;53.082;8.816;2023-03-13T05:36:56;99418.50;;;13.05;71.29
64889;BME280;51386;53.082;8.816;2023-03-13T05:39:23;99427.56;;;13.16;71.05
64889;BME280;51386;53.082;8.816;2023-03-13T05:41:50;99411.84;;;13.21;70.96
64889;BME280;51386;53.082;8.816;2023-03-13T05:44:17;99424.53;;;13.30;70.31
64889;BME280;51386;53.082;8.816;2023-03-13T05:46:44;99428.56;;;13.33;70.73
64889;BME280;51386;53.082;8.816;2023-03-13T05:49:11;99407.31;;;13.39;70.74
64889;BME280;51386;53.082;8.816;2023-03-13T05:51:39;99404.66;;;13.39;70.93
64889;BME280;51386;53.082;8.816;2023-03-13T05:54:06;99398.66;;;13.32;71.24
64889;BME280;51386;53.082;8.816;2023-03-13T05:56:33;99402.84;;;13.40;71.38
64889;BME280;51386;53.082;8.816;2023-03-13T05:59:00;99397.19;;;13.36;71.73
64889;BME280;51386;53.082;8.816;2023-03-13T06:01:27;99387.31;;;13.43;71.37
64889;BME280;51386;53.082;8.816;2023-03-13T06:03:54;99384.69;;;13.55;71.18
64889;BME280;51386;53.082;8.816;2023-03-13T06:06:21;99370.34;;;13.63;70.90
64889;BME280;51386;53.082;8.816;2023-03-13T06:08:51;99364.03;;;13.75;70.69
64889;BME280;51386;53.082;8.816;2023-03-13T06:11:18;99369.44;;;13.80;70.72
64889;BME280;51386;53.082;8.816;2023-03-13T06:13:45;99360.94;;;13.90;70.39
64889;BME280;51386;53.082;8.816;2023-03-13T06:16:12;99351.97;;;13.91;70.30
64889;BME280;51386;53.082;8.816;2023-03-13T06:18:39;99351.97;;;13.91;70.46
64889;BME280;51386;53.082;8.816;2023-03-13T06:21:06;99347.84;;;13.95;70.29
64889;BME280;51386;53.082;8.816;2023-03-13T06:23:33;99351.28;;;14.07;69.98
64889;BME280;51386;53.082;8.816;2023-03-13T06:26:02;99343.78;;;14.15;69.91
64889;BME280;51386;53.082;8.816;2023-03-13T06:28:29;99341.72;;;14.17;69.78
64889;BME280;51386;53.082;8.816;2023-03-13T06:31:00;99343.78;;;14.15;69.94
64889;BME280;51386;53.082;8.816;2023-03-13T06:33:27;99347.38;;;14.21;69.90
64889;BME280;51386;53.082;8.816;2023-03-13T06:35:55;99335.28;;;14.25;70.13
64889;BME280;51386;53.082;8.816;2023-03-13T06:38:23;99337.34;;;14.23;70.12
64889;BME280;51386;53.082;8.816;2023-03-13T06:40:50;99327.59;;;14.12;70.40
64889;BME280;51386;53.082;8.816;2023-03-13T06:43:19;99322.63;;;14.15;70.91
64889;BME280;51386;53.082;8.816;2023-03-13T06:45:46;99328.47;;;14.29;70.49
64889;BME280;51386;53.082;8.816;2023-03-13T06:48:14;99324.22;;;14.40;70.01
64889;BME280;51386;53.082;8.816;2023-03-13T06:50:41;99319.59;;;14.47;70.22
64889;BME280;51386;53.082;8.816;2023-03-13T06:53:15;99317.19;;;14.45;70.09
64889;BME280;51386;53.082;8.816;2023-03-13T06:55:43;99318.34;;;14.49;70.33
64889;BME280;51386;53.082;8.816;2023-03-13T06:58:10;99316.47;;;14.61;70.04
64889;BME280;51386;53.082;8.816;2023-03-13T07:01:06;99306.44;;;14.63;69.85
64889;BME280;51386;53.082;8.816;2023-03-13T07:03:34;99311.28;;;14.55;70.42
64889;BME280;51386;53.082;8.816;2023-03-13T07:06:03;99304.44;;;14.70;70.34
64889;BME280;51386;53.082;8.816;2023-03-13T07:08:31;99306.78;;;14.83;69.98
64889;BME280;51386;53.082;8.816;2023-03-13T07:11:01;99307.44;;;14.90;69.60
64889;BME280;51386;53.082;8.816;2023-03-13T07:13:29;99311.91;;;15.02;69.39
64889;BME280;51386;53.082;8.816;2023-03-13T07:16:01;99311.03;;;15.13;69.36
64889;BME280;51386;53.082;8.816;2023-03-13T07:18:31;99305.00;;;15.17;68.83
64889;BME280;51386;53.082;8.816;2023-03-13T07:21:02;99306.00;;;15.28;68.82
64889;BME280;51386;53.082;8.816;2023-03-13T07:23:35;99300.19;;;15.31;68.82
64889;BME280;51386;53.082;8.816;2023-03-13T07:26:04;99311.84;;;15.30;68.83
64889;BME280;51386;53.082;8.816;2023-03-13T07:28:31;99311.94;;;15.35;68.90
64889;BME280;51386;53.082;8.816;2023-03-13T07:31:09;99312.34;;;15.43;68.91
64889;BME280;51386;53.082;8.816;2023-03-13T07:33:36;99304.56;;;15.53;68.56
64889;BME280;51386;53.082;8.816;2023-03-13T07:36:04;99308.22;;;15.64;68.72
64889;BME280;51386;53.082;8.816;2023-03-13T07:38:32;99309.41;;;15.73;68.10
64889;BME280;51386;53.082;8.816;2023-03-13T07:40:59;99303.84;;;15.75;68.12
64889;BME280;51386;53.082;8.816;2023-03-13T07:43:27;99318.53;;;15.82;68.17
64889;BME280;51386;53.082;8.816;2023-03-13T07:45:57;99297.25;;;15.77;68.37
64889;BME280;51386;53.082;8.816;2023-03-13T07:48:30;99293.59;;;15.83;68.21
64889;BME280;51386;53.082;8.816;2023-03-13T07:50:58;99293.69;;;15.88;68.06
64889;BME280;51386;53.082;8.816;2023-03-13T07:53:28;99309.50;;;16.00;68.07
64889;BME280;51386;53.082;8.816;2023-03-13T07:55:58;99313.59;;;16.07;67.53
64889;BME280;51386;53.082;8.816;2023-03-13T07:58:29;99311.44;;;16.04;67.98
64889;BME280;51386;53.082;8.816;2023-03-13T08:00:58;99306.97;;;16.10;67.54
64889;BME280;51386;53.082;8.816;2023-03-13T08:03:26;99319.59;;;16.19;67.39
64889;BME280;51386;53.082;8.816;2023-03-13T08:05:59;99300.38;;;16.12;67.60
64889;BME280;51386;53.082;8.816;2023-03-13T08:08:27;99300.94;;;16.14;67.58
64889;BME280;51386;53.082;8.816;2023-03-13T08:10:59;99284.53;;;16.17;66.96
64889;BME280;51386;53.082;8.816;2023-03-13T08:13:26;99285.13;;;16.24;66.96
64889;BME280;51386;53.082;8.816;2023-03-13T08:16:02;99277.38;;;16.40;66.83
64889;BME280;51386;53.082;8.816;2023-03-13T08:18:31;99278.63;;;16.54;66.66
64889;BME280;51386;53.082;8.816;2023-03-13T08:21:04;99283.47;;;16.62;66.37
64889;BME280;51386;53.082;8.816;2023-03-13T08:23:32;99271.38;;;16.71;66.00
64889;BME280;51386;53.082;8.816;2023-03-13T08:26:05;99273.50;;;16.74;65.29
64889;BME280;51386;53.082;8.816;2023-03-13T08:28:33;99267.16;;;16.75;65.42
64889;BME280;51386;53.082;8.816;2023-03-13T08:31:07;99271.72;;;16.79;65.26
64889;BME280;51386;53.082;8.816;2023-03-13T08:33:36;99272.56;;;16.85;65.08
64889;BME280;51386;53.082;8.816;2023-03-13T08:36:15;99278.81;;;16.74;64.94
64889;BME280;51386;53.082;8.816;2023-03-13T08:38:44;99286.03;;;16.78;65.26
64889;BME280;51386;53.082;8.816;2023-03-13T08:41:14;99268.72;;;16.76;65.02
64889;BME280;51386;53.082;8.816;2023-03-13T08:43:41;99265.59;;;16.79;65.07
64889;BME280;51386;53.082;8.816;2023-03-13T08:46:09;99283.63;;;16.77;64.54
64889;BME280;51386;53.082;8.816;2023-03-13T08:48:38;99280.63;;;16.68;65.00
64889;BME280;51386;53.082;8.816;2023-03-13T08:51:07;99279.38;;;16.76;65.03
64889;BME280;51386;53.082;8.816;2023-03-13T08:53:36;99277.03;;;16.79;64.76
64889;BME280;51386;53.082;8.816;2023-03-13T08:56:05;99270.84;;;16.74;64.74
64889;BME280;51386;53.082;8.816;2023-03-13T08:58:33;99286.84;;;16.79;64.88
64889;BME280;51386;53.082;8.816;2023-03-13T09:01:01;99276.31;;;16.89;64.26
64889;BME280;51386;53.082;8.816;2023-03-13T09:03:29;99281.59;;;16.84;64.25
64889;BME280;51386;53.082;8.816;2023-03-13T09:05:58;99286.47;;;16.92;64.34
64889;BME280;51386;53.082;8.816;2023-03-13T09:08:27;99282.28;;;17.01;64.60
64889;BME280;51386;53.082;8.816;2023-03-13T09:10:55;99290.84;;;17.08;64.10
64889;BME280;51386;53.082;8.816;2023-03-13T09:13:24;99271.75;;;17.11;64.07
64889;BME280;51386;53.082;8.816;2023-03-13T09:15:55;99281.84;;;17.14;63.80
64889;BME280;51386;53.082;8.816;2023-03-13T09:18:23;99281.31;;;17.12;63.98
64889;BME280;51386;53.082;8.816;2023-03-13T09:20:51;99284.59;;;17.24;63.82
64889;BME280;51386;53.082;8.816;2023-03-13T09:23:20;99259.09;;;17.28;63.67
64889;BME280;51386;53.082;8.816;2023-03-13T09:25:48;99267.94;;;17.34;63.67
64889;BME280;51386;53.082;8.816;2023-03-13T09:28:15;99282.81;;;17.30;63.82
64889;BME280;51386;53.082;8.816;2023-03-13T09:30:42;99277.25;;;17.36;63.69
64889;BME280;51386;53.082;8.816;2023-03-13T09:33:10;99289.00;;;17.40;63.69
64889;BME280;51386;53.082;8.816;2023-03-13T09:35:37;99276.75;;;17.39;63.33
64889;BME280;51386;53.082;8.816;2023-03-13T09:38:06;99267.72;;;17.40;63.34
64889;BME280;51386;53.082;8.816;2023-03-13T09:40:40;99273.03;;;17.40;63.25
64889;BME280;51386;53.082;8.816;2023-03-13T09:43:24;99280.78;;;17.42;63.33
64889;BME280;51386;53.082;8.816;2023-03-13T09:46:00;99283.72;;;17.45;63.10
64889;BME280;51386;53.082;8.816;2023-03-13T09:48:32;99284.81;;;17.49;62.86
64889;BME280;51386;53.082;8.816;2023-03-13T09:51:06;99280.38;;;17.60;62.99
64889;BME280;51386;53.082;8.816;2023-03-13T09:53:42;99267.97;;;17.71;62.15
64889;BME280;51386;53.082;8.816;2023-03-13T09:56:17;99268.56;;;17.88;62.82
64889;BME280;51386;53.082;8.816;2023-03-13T09:58:52;99269.25;;;18.15;61.43
64889;BME280;51386;53.082;8.816;2023-03-13T10:01:26;99259.72;;;18.29;61.25
64889;BME280;51386;53.082;8.816;2023-03-13T10:04:25;99276.81;;;18.43;60.21
64889;BME280;51386;53.082;8.816;2023-03-13T10:06:53;99259.59;;;18.66;60.53
64889;BME280;51386;53.082;8.816;2023-03-13T10:09:27;99262.88;;;19.48;59.72
64889;BME280;51386;53.082;8.816;2023-03-13T10:12:06;99255.47;;;20.30;55.64
64889;BME280;51386;53.082;8.816;2023-03-13T10:14:44;99260.09;;;20.68;54.87
64889;BME280;51386;53.082;8.816;2023-03-13T10:17:32;99256.00;;;21.19;54.07
64889;BME280;51386;53.082;8.816;2023-03-13T10:20:09;99243.94;;;21.50;52.03
64889;BME280;51386;53.082;8.816;2023-03-13T10:22:44;99245.00;;;21.49;51.48
64889;BME280;51386;53.082;8.816;2023-03-13T10:25:26;99238.81;;;21.25;49.86
64889;BME280;51386;53.082;8.816;2023-03-13T10:27:55;99245.66;;;21.03;51.06
64889;BME280;51386;53.082;8.816;2023-03-13T10:30:25;99232.16;;;20.84;51.32
64889;BME280;51386;53.082;8.816;2023-03-13T10:32:57;99250.44;;;20.72;51.48
64889;BME280;51386;53.082;8.816;2023-03-13T10:35:34;99237.66;;;20.59;51.50
64889;BME280;51386;53.082;8.816;2023-03-13T10:38:09;99245.78;;;20.44;51.63
64889;BME280;51386;53.082;8.816;2023-03-13T10:40:37;99247.16;;;20.36;51.85
64889;BME280;51386;53.082;8.816;2023-03-13T10:43:14;99247.72;;;20.23;51.88
64889;BME280;51386;53.082;8.816;2023-03-13T10:45:43;99248.84;;;20.12;51.97
64889;BME280;51386;53.082;8.816;2023-03-13T10:48:13;99260.88;;;19.99;52.51
64889;BME280;51386;53.082;8.816;2023-03-13T10:50:44;99263.59;;;19.89;52.97
64889;BME280;51386;53.082;8.816;2023-03-13T10:53:30;99262.00;;;19.78;54.02
64889;BME280;51386;53.082;8.816;2023-03-13T10:56:07;99250.88;;;19.51;54.45
64889;BME280;51386;53.082;8.816;2023-03-13T10:58:42;99247.09;;;19.57;54.98
64889;BME280;51386;53.082;8.816;2023-03-13T11:01:17;99243.59;;;19.87;54.39
64889;BME280;51386;53.082;8.816;2023-03-13T11:03:47;99241.09;;;20.15;53.32
64889;BME280;51386;53.082;8.816;2023-03-13T11:06:36;99234.94;;;20.25;51.75
64889;BME280;51386;53.082;8.816;2023-03-13T11:09:12;99234.88;;;20.30;51.99
64889;BME280;51386;53.082;8.816;2023-03-13T11:11:49;99237.75;;;20.44;51.99
64889;BME280;51386;53.082;8.816;2023-03-13T11:14:20;99225.38;;;20.58;51.85
64889;BME280;51386;53.082;8.816;2023-03-13T11:16:50;99212.50;;;20.65;51.62
64889;BME280;51386;53.082;8.816;2023-03-13T11:19:46;99221.03;;;20.67;51.22
64889;BME280;51386;53.082;8.816;2023-03-13T11:22:41;99206.84;;;20.71;50.03
64889;BME280;51386;53.082;8.816;2023-03-13T11:25:27;99197.03;;;20.96;49.79
64889;BME280;51386;53.082;8.816;2023-03-13T11:28:21;99221.22;;;21.19;48.90
64889;BME280;51386;53.082;8.816;2023-03-13T11:31:04;99224.97;;;21.71;47.67
64889;BME280;51386;53.082;8.816;2023-03-13T11:33:41;99208.28;;;22.26;46.83
64889;BME280;51386;53.082;8.816;2023-03-13T11:36:21;99202.75;;;22.92;44.93
64889;BME280;51386;53.082;8.816;2023-03-13T11:38:54;99198.97;;;23.12;43.08
64889;BME280;51386;53.082;8.816;2023-03-13T11:41:45;99209.69;;;22.79;43.05
64889;BME280;51386;53.082;8.816;2023-03-13T11:44:30;99209.53;;;22.52;43.87
64889;BME280;51386;53.082;8.816;2023-03-13T11:47:35;99213.00;;;22.34;43.54
64889;BME280;51386;53.082;8.816;2023-03-13T11:50:26;99203.28;;;22.19;43.10
64889;BME280;51386;53.082;8.816;2023-03-13T11:53:18;99199.72;;;22.24;43.22
64889;BME280;51386;53.082;8.816;2023-03-13T11:56:02;99196.97;;;22.48;42.97
64889;BME280;51386;53.082;8.816;2023-03-13T11:59:01;99200.34;;;22.77;42.42
64889;BME280;51386;53.082;8.816;2023-03-13T12:01:36;99181.09;;;22.88;42.45
64889;BME280;51386;53.082;8.816;2023-03-13T12:04:16;99195.16;;;22.80;41.98
64889;BME280;51386;53.082;8.816;2023-03-13T12:06:51;99179.06;;;22.80;40.66
64889;BME280;51386;53.082;8.816;2023-03-13T12:09:25;99187.81;;;22.72;40.54
64889;BME280;51386;53.082;8.816;2023-03-13T12:12:00;99172.34;;;22.64;40.55
64889;BME280;51386;53.082;8.816;2023-03-13T12:14:34;99166.50;;;22.62;39.97
64889;BME280;51386;53.082;8.816;2023-03-13T12:17:08;99172.41;;;22.59;40.12
64889;BME280;51386;53.082;8.816;2023-03-13T12:19:46;99166.03;;;22.55;40.20
64889;BME280;51386;53.082;8.816;2023-03-13T12:22:21;99168.94;;;22.40;39.91
64889;BME280;51386;53.082;8.816;2023-03-13T12:24:59;99167.56;;;22.43;40.63
64889;BME280;51386;53.082;8.816;2023-03-13T12:27:32;99148.66;;;22.34;39.23
64889;BME280;51386;53.082;8.816;2023-03-13T12:30:05;99149.94;;;22.18;39.07
64889;BME280;51386;53.082;8.816;2023-03-13T12:32:49;99152.84;;;22.03;39.71
64889;BME280;51386;53.082;8.816;2023-03-13T12:35:26;99138.78;;;22.11;39.95
64889;BME280;51386;53.082;8.816;2023-03-13T12:38:04;99143.28;;;22.34;39.52
64889;BME280;51386;53.082;8.816;2023-03-13T12:40:40;99134.13;;;22.72;39.52
64889;BME280;51386;53.082;8.816;2023-03-13T12:43:17;99136.38;;;22.98;38.89
64889;BME280;51386;53.082;8.816;2023-03-13T12:46:06;99135.19;;;23.04;38.64
64889;BME280;51386;53.082;8.816;2023-03-13T12:49:00;99113.13;;;23.07;38.88
64889;BME280;51386;53.082;8.816;2023-03-13T12:51:47;99120.59;;;23.10;38.70
64889;BME280;51386;53.082;8.816;2023-03-13T12:54:40;99087.91;;;23.08;38.15
64889;BME280;51386;53.082;8.816;2023-03-13T12:57:48;99108.75;;;23.11;38.29
64889;BME280;51386;53.082;8.816;2023-03-13T13:00:27;99097.50;;;23.41;38.55
64889;BME280;51386;53.082;8.816;2023-03-13T13:03:14;99102.25;;;23.44;37.20
64889;BME280;51386;53.082;8.816;2023-03-13T13:05:59;99079.19;;;23.43;37.47
64889;BME280;51386;53.082;8.816;2023-03-13T13:08:35;99091.31;;;23.40;37.27
64889;BME280;51386;53.082;8.816;2023-03-13T13:11:44;99096.69;;;23.54;37.34
64889;BME280;51386;53.082;8.816;2023-03-13T13:14:55;99081.16;;;23.37;37.83
64889;BME280;51386;53.082;8.816;2023-03-13T13:17:46;99078.78;;;23.36;37.86
64889;BME280;51386;53.082;8.816;2023-03-13T13:20:43;99068.41;;;23.16;37.87
64889;BME280;51386;53.082;8.816;2023-03-13T13:23:35;99076.91;;;23.36;38.31
64889;BME280;51386;53.082;8.816;2023-03-13T13:26:47;99064.53;;;23.49;37.96